Impacts TAF Board
For situational awareness. Not to be used for flight planning purposes.
IDs:

KORD - Chicago/O'Hare Intl, IL, US

Issued at 1740 UTC 18 Jun 2019
Updated at 1928 UTC 18 Jun 2019
Potential Impact None Slight Moderate High
Time1851Z 18/20Z 18/21Z 18/22Z 18/23Z 19/00Z 19/01Z 19/02Z 19/03Z 19/04Z 19/05Z 19/06Z 19/07Z 19/08Z>>
Type OBS PRVL PRVL PRVL PRVL PRVL PRVL PRVL PRVL PRVL PRVL PRVL PRVL PRVL
VIS 10 >6 >6 >6 >6 >6 >6 >6 >6 >6 >6 >6 >6 >6
CIG 250 -- -- -- -- -- -- -- -- -- -- -- -- --
Cover BKN SCT SCT SCT SCT SCT SCT SCT SCT SCT SCT SCT SCT SCT
FltCat VFR VFR VFR VFR VFR VFR VFR VFR VFR VFR VFR VFR VFR VFR
WX -- -- -- -- -- -- -- -- -- -- -- -- -- --
WDir VRB 90 90 90 90 90 80 80 80 80 80 80 80 80
WSpd 0 7 7 7 7 7 3 3 3 3 3 3 3 3
WGst -- -- -- -- -- -- -- -- -- -- -- -- -- --
Raw TAF
KORD 181740Z 1818/1924 09007KT P6SM SCT040 SCT120
  FM190100 08003KT P6SM FEW035 SCT100
  FM190900 05003KT 4SM BR SCT060 BKN100
  TEMPO 1909/1913 1 1/2SM BR
  FM191300 04008KT P6SM SCT030 OVC060
  PROB30 1917/1920 4SM -SHRA BR OVC050


Raw METAR
KORD 181851Z 00000KT 10SM FEW041 SCT200 BKN250 24/13 A2992 RMK AO2 SLP131 T02440133
KORD 181751Z 11004KT 10SM FEW038 SCT250 24/14 A2994 RMK AO2 SLP136 T02390144 10239 20128 58011
KORD 181651Z VRB03KT 10SM FEW030 FEW250 22/14 A2996 RMK AO2 SLP142 T02220144

METAR Board
Radar Display
Forecast Discussion
For situational awareness. Not to be used for flight planning purposes.